createdAt,value
2018-07-25T00:00:19.925Z,5.10
2018-07-25T00:02:48.373Z,5.27
2018-07-25T00:05:17.717Z,5.20
2018-07-25T00:07:46.597Z,5.33
2018-07-25T00:10:15.046Z,4.67
2018-07-25T00:12:43.867Z,5.22
2018-07-25T00:15:12.639Z,6.20
2018-07-25T00:17:41.295Z,5.47
2018-07-25T00:20:10.538Z,5.50
2018-07-25T00:22:39.289Z,5.73
2018-07-25T00:25:08.387Z,6.17
2018-07-25T00:27:37.422Z,6.20
2018-07-25T00:30:06.204Z,5.70
2018-07-25T00:32:34.920Z,5.77
2018-07-25T00:35:03.794Z,6.10
2018-07-25T00:37:32.257Z,5.67
2018-07-25T00:40:00.986Z,5.37
2018-07-25T00:42:29.929Z,5.17
2018-07-25T00:44:58.405Z,5.13
2018-07-25T00:47:26.898Z,5.50
2018-07-25T00:49:55.589Z,5.00
2018-07-25T00:52:24.049Z,4.87
2018-07-25T00:54:52.509Z,5.00
2018-07-25T00:57:21.334Z,4.70
2018-07-25T00:59:49.884Z,4.60
2018-07-25T01:02:18.361Z,4.80
2018-07-25T01:04:47.697Z,4.67
2018-07-25T01:07:16.162Z,4.83
2018-07-25T01:09:44.943Z,4.60
2018-07-25T01:12:13.844Z,4.07
2018-07-25T01:14:42.605Z,4.60
2018-07-25T01:17:11.264Z,4.30
2018-07-25T01:19:40.214Z,4.67
2018-07-25T01:22:08.950Z,5.27
2018-07-25T01:24:38.397Z,5.13
2018-07-25T01:27:07.358Z,4.70
2018-07-25T01:29:36.244Z,5.17
2018-07-25T01:32:04.933Z,5.30
2018-07-25T01:34:33.408Z,5.00
2018-07-25T01:37:01.924Z,5.27
2018-07-25T01:39:30.961Z,5.10
2018-07-25T01:41:59.826Z,5.60
2018-07-25T01:44:28.389Z,5.80
2018-07-25T01:46:57.681Z,4.97
2018-07-25T01:49:27.106Z,5.60
2018-07-25T01:51:55.915Z,5.30
2018-07-25T01:54:24.616Z,5.20
2018-07-25T01:56:53.465Z,5.67
2018-07-25T01:59:22.317Z,5.53
2018-07-25T02:01:50.756Z,5.53
2018-07-25T02:04:19.829Z,5.43
2018-07-25T02:06:48.421Z,5.97
2018-07-25T02:09:16.853Z,5.63
2018-07-25T02:11:45.985Z,5.50
2018-07-25T02:14:14.747Z,6.10
2018-07-25T02:16:43.459Z,5.40
2018-07-25T02:19:12.009Z,5.63
2018-07-25T02:21:40.436Z,5.67
2018-07-25T02:24:09.506Z,5.47
2018-07-25T02:26:38.325Z,5.40
2018-07-25T02:29:07.266Z,5.93
2018-07-25T02:31:36.130Z,5.10
2018-07-25T02:34:09.825Z,5.90
2018-07-25T02:36:38.899Z,5.33
2018-07-25T02:39:09.937Z,5.50
2018-07-25T02:41:38.638Z,5.10
2018-07-25T02:44:07.397Z,5.03
2018-07-25T02:46:36.240Z,4.63
2018-07-25T02:49:04.733Z,4.80
2018-07-25T02:51:33.861Z,4.60
2018-07-25T02:54:03.245Z,4.90
2018-07-25T02:56:32.513Z,4.70
2018-07-25T02:59:01.655Z,4.20
2018-07-25T03:01:30.227Z,4.93
2018-07-25T03:03:58.809Z,5.00
2018-07-25T03:06:27.908Z,5.00
2018-07-25T03:08:56.502Z,5.07
2018-07-25T03:11:25.249Z,4.90
2018-07-25T03:13:54.209Z,5.47
2018-07-25T03:16:22.695Z,5.77
2018-07-25T03:18:51.155Z,6.10
2018-07-25T03:21:19.996Z,5.87
2018-07-25T03:23:48.665Z,6.03
2018-07-25T03:26:17.168Z,5.40
2018-07-25T03:28:46.010Z,6.57
2018-07-25T03:31:14.859Z,6.43
2018-07-25T03:33:43.321Z,5.97
2018-07-25T03:36:12.088Z,6.00
2018-07-25T03:38:40.542Z,5.73
2018-07-25T03:41:09.010Z,5.80
2018-07-25T03:43:38.010Z,5.90
2018-07-25T03:46:06.846Z,5.93
2018-07-25T03:48:35.326Z,5.33
2018-07-25T03:51:04.052Z,5.12
2018-07-25T03:53:32.890Z,5.33
2018-07-25T03:56:01.405Z,5.15
2018-07-25T03:58:30.208Z,5.20
2018-07-25T04:00:58.665Z,4.83
2018-07-25T04:03:28.025Z,5.37
2018-07-25T04:05:57.153Z,5.20
2018-07-25T04:08:25.923Z,4.62
2018-07-25T04:10:54.740Z,4.20
2018-07-25T04:13:23.449Z,4.70
2018-07-25T04:15:52.297Z,4.95
2018-07-25T04:18:21.085Z,5.03
2018-07-25T04:20:49.909Z,5.03
2018-07-25T04:23:18.361Z,4.12
2018-07-25T04:25:47.044Z,4.70
2018-07-25T04:28:15.965Z,3.90
2018-07-25T04:30:44.409Z,4.55
2018-07-25T04:33:13.209Z,4.62
2018-07-25T04:35:42.248Z,4.30
2018-07-25T04:38:10.669Z,4.30
2018-07-25T04:40:39.149Z,3.67
2018-07-25T04:43:08.573Z,3.87
2018-07-25T04:45:37.021Z,3.80
2018-07-25T04:48:05.967Z,4.20
2018-07-25T04:50:34.789Z,4.00
2018-07-25T04:53:03.481Z,3.95
2018-07-25T04:55:32.139Z,3.50
2018-07-25T04:58:00.856Z,3.60
2018-07-25T05:00:29.772Z,3.80
2018-07-25T05:02:58.366Z,3.40
2018-07-25T05:05:27.093Z,3.40
2018-07-25T05:07:56.497Z,3.70
2018-07-25T05:10:25.239Z,3.40
2018-07-25T05:12:54.052Z,3.95
2018-07-25T05:15:22.505Z,3.60
2018-07-25T05:17:51.336Z,4.33
2018-07-25T05:20:20.145Z,3.85
2018-07-25T05:22:48.587Z,3.55
2018-07-25T05:25:17.333Z,3.70
2018-07-25T05:27:46.161Z,2.80
2018-07-25T05:30:14.763Z,3.40
2018-07-25T05:32:43.253Z,3.72
2018-07-25T05:35:12.487Z,3.55
2018-07-25T05:37:40.933Z,3.87
2018-07-25T05:40:09.833Z,3.67
2018-07-25T05:42:39.296Z,3.83
2018-07-25T05:45:08.034Z,3.87
2018-07-25T05:47:36.530Z,3.87
2018-07-25T05:50:06.634Z,3.40
2018-07-25T05:52:35.331Z,3.50
2018-07-25T05:55:04.554Z,3.50
2018-07-25T05:57:33.294Z,3.37
2018-07-25T06:00:02.401Z,3.45
2018-07-25T06:02:31.337Z,3.70
2018-07-25T06:05:00.189Z,3.52
2018-07-25T06:07:28.645Z,3.70
2018-07-25T06:09:57.369Z,3.77
2018-07-25T06:12:27.676Z,3.35
2018-07-25T06:14:56.137Z,3.55
2018-07-25T06:17:24.985Z,3.67
2018-07-25T06:19:53.787Z,3.70
2018-07-25T06:22:22.357Z,3.27
2018-07-25T06:24:51.045Z,3.33
2018-07-25T06:27:19.770Z,3.62
2018-07-25T06:29:48.236Z,3.05
2018-07-25T06:32:16.914Z,3.45
2018-07-25T06:34:45.470Z,2.95
2018-07-25T06:37:14.229Z,3.20
2018-07-25T06:39:42.833Z,3.35
2018-07-25T06:42:11.358Z,3.12
2018-07-25T06:44:39.921Z,3.35
2018-07-25T06:47:08.397Z,3.15
2018-07-25T06:49:36.867Z,3.50
2018-07-25T06:52:06.096Z,3.72
2018-07-25T06:54:34.601Z,3.47
2018-07-25T06:57:03.059Z,3.00
2018-07-25T06:59:31.681Z,3.22
2018-07-25T07:02:00.290Z,3.20
2018-07-25T07:04:29.292Z,3.15
2018-07-25T07:06:58.094Z,3.72
2018-07-25T07:09:27.061Z,3.05
2018-07-25T07:11:56.502Z,3.87
2018-07-25T07:14:25.165Z,3.33
2018-07-25T07:16:54.037Z,3.75
2018-07-25T07:19:22.941Z,3.85
2018-07-25T07:21:51.395Z,3.60
2018-07-25T07:24:20.078Z,3.22
2018-07-25T07:26:48.934Z,3.95
2018-07-25T07:29:17.429Z,3.58
2018-07-25T07:31:46.391Z,3.62
2018-07-25T07:34:14.910Z,3.60
2018-07-25T07:36:43.405Z,4.15
2018-07-25T07:39:13.853Z,3.60
2018-07-25T07:41:42.973Z,3.33
2018-07-25T07:44:11.611Z,3.40
2018-07-25T07:46:40.185Z,3.35
2018-07-25T07:49:09.236Z,3.50
2018-07-25T07:51:38.083Z,3.42
2018-07-25T07:54:06.710Z,2.90
2018-07-25T07:56:35.148Z,3.27
2018-07-25T07:59:03.809Z,3.35
2018-07-25T08:01:32.402Z,3.45
2018-07-25T08:04:01.337Z,3.05
2018-07-25T08:06:29.973Z,2.95
2018-07-25T08:08:58.838Z,2.95
2018-07-25T08:11:27.333Z,3.25
2018-07-25T08:13:55.769Z,2.55
2018-07-25T08:16:24.606Z,2.77
2018-07-25T08:18:53.140Z,3.00
2018-07-25T08:21:21.561Z,2.67
2018-07-25T08:23:50.061Z,2.80
2018-07-25T08:26:18.937Z,2.70
2018-07-25T08:28:47.368Z,3.02
2018-07-25T08:31:16.106Z,2.85
2018-07-25T08:33:44.709Z,2.87
2018-07-25T08:36:13.160Z,3.08
2018-07-25T08:38:43.066Z,2.70
2018-07-25T08:41:11.993Z,2.92
2018-07-25T08:43:41.986Z,2.85
2018-07-25T08:46:11.665Z,3.12
2018-07-25T08:48:41.122Z,2.60
2018-07-25T08:51:09.705Z,2.58
2018-07-25T08:53:38.837Z,2.90
2018-07-25T08:56:07.765Z,3.00
2018-07-25T08:58:36.406Z,3.72
2018-07-25T09:01:05.000Z,6.53
2018-07-25T09:03:33.602Z,2.90
2018-07-25T09:06:02.644Z,3.37
2018-07-25T09:08:31.765Z,2.83
2018-07-25T09:11:00.458Z,3.02
2018-07-25T09:13:29.089Z,2.58
2018-07-25T09:15:58.078Z,4.78
2018-07-25T09:18:26.960Z,5.85
2018-07-25T09:20:55.585Z,4.00
2018-07-25T09:23:24.265Z,6.60
2018-07-25T09:25:53.185Z,8.75
2018-07-25T09:28:21.946Z,6.83
2018-07-25T09:30:50.725Z,3.67
2018-07-25T09:33:19.393Z,5.25
2018-07-25T09:35:47.848Z,3.60
2018-07-25T09:38:16.347Z,3.70
2018-07-25T09:40:45.399Z,3.00
2018-07-25T09:43:14.029Z,3.60
2018-07-25T09:45:42.549Z,2.90
2018-07-25T09:48:11.353Z,7.10
2018-07-25T09:50:40.469Z,3.50
2018-07-25T09:53:09.096Z,5.92
2018-07-25T09:55:37.694Z,6.35
2018-07-25T09:58:06.481Z,5.60
2018-07-25T10:00:40.540Z,5.67
2018-07-25T10:03:09.382Z,3.60
2018-07-25T10:05:37.949Z,4.87
2018-07-25T10:08:06.823Z,16.07
2018-07-25T10:10:35.433Z,3.00
2018-07-25T10:13:04.729Z,2.98
2018-07-25T10:15:33.377Z,3.62
2018-07-25T10:18:02.114Z,7.55
2018-07-25T10:20:30.717Z,2.80
2018-07-25T10:22:59.225Z,4.17
2018-07-25T10:25:28.067Z,4.08
2018-07-25T10:27:57.515Z,3.00
2018-07-25T10:30:26.009Z,3.37
2018-07-25T10:32:54.725Z,5.85
2018-07-25T10:35:23.593Z,3.25
2018-07-25T10:37:52.077Z,4.40
2018-07-25T10:40:20.894Z,3.95
2018-07-25T10:42:49.453Z,3.72
2018-07-25T10:45:18.013Z,7.22
2018-07-25T10:47:46.973Z,4.85
2018-07-25T10:50:15.631Z,3.40
2018-07-25T10:52:44.293Z,4.08
2018-07-25T10:55:13.524Z,2.80
2018-07-25T10:57:41.991Z,2.77
2018-07-25T11:00:10.529Z,2.80
2018-07-25T11:02:39.392Z,3.55
2018-07-25T11:05:08.198Z,3.40
2018-07-25T11:07:36.795Z,2.65
2018-07-25T11:10:05.950Z,2.72
2018-07-25T11:12:34.729Z,4.70
2018-07-25T11:15:03.253Z,3.25
2018-07-25T11:17:32.019Z,2.95
2018-07-25T11:20:00.685Z,2.90
2018-07-25T11:22:29.513Z,3.00
2018-07-25T11:24:58.358Z,3.08
2018-07-25T11:27:27.025Z,2.95
2018-07-25T11:29:55.680Z,3.20
2018-07-25T11:32:24.458Z,3.05
2018-07-25T11:34:53.093Z,3.40
2018-07-25T11:37:21.973Z,2.90
2018-07-25T11:39:51.398Z,2.67
2018-07-25T11:42:19.856Z,2.67
2018-07-25T11:44:48.348Z,3.05
2018-07-25T11:47:17.446Z,2.87
2018-07-25T11:49:45.905Z,2.77
2018-07-25T11:52:14.365Z,2.87
2018-07-25T11:54:43.505Z,3.27
2018-07-25T11:57:12.039Z,2.80
2018-07-25T11:59:40.519Z,2.90
2018-07-25T12:02:09.039Z,3.05
2018-07-25T12:04:37.793Z,3.10
2018-07-25T12:07:06.345Z,3.12
2018-07-25T12:09:35.005Z,3.10
2018-07-25T12:12:03.682Z,2.72
2018-07-25T12:14:32.261Z,2.80
2018-07-25T12:17:01.121Z,3.00
2018-07-25T12:19:29.709Z,2.90
2018-07-25T12:21:58.588Z,2.95
2018-07-25T12:24:27.136Z,2.72
2018-07-25T12:26:55.677Z,2.70
2018-07-25T12:29:25.078Z,2.72
2018-07-25T12:31:53.700Z,3.20
2018-07-25T12:34:22.196Z,2.70
2018-07-25T12:36:51.055Z,2.90
2018-07-25T12:39:19.645Z,2.98
2018-07-25T12:41:48.110Z,2.85
2018-07-25T12:44:17.085Z,2.50
2018-07-25T12:46:45.905Z,2.60
2018-07-25T12:49:14.397Z,2.42
2018-07-25T12:51:43.137Z,2.50
2018-07-25T12:54:11.833Z,2.80
2018-07-25T12:56:40.373Z,2.50
2018-07-25T12:59:08.997Z,2.60
2018-07-25T13:01:37.534Z,2.42
2018-07-25T13:04:06.291Z,2.40
2018-07-25T13:06:35.236Z,2.40
2018-07-25T13:09:05.104Z,2.40
2018-07-25T13:11:33.550Z,2.58
2018-07-25T13:14:02.102Z,2.87
2018-07-25T13:16:31.113Z,2.62
2018-07-25T13:18:59.578Z,2.90
2018-07-25T13:21:28.677Z,3.00
2018-07-25T13:23:58.425Z,2.58
2018-07-25T13:26:31.326Z,2.90
2018-07-25T13:29:02.742Z,2.70
2018-07-25T13:31:31.725Z,2.47
2018-07-25T13:34:00.193Z,2.83
2018-07-25T13:36:28.797Z,3.00
2018-07-25T13:38:57.954Z,2.33
2018-07-25T13:41:26.430Z,2.80
2018-07-25T13:43:54.923Z,2.15
2018-07-25T13:46:24.451Z,2.95
2018-07-25T13:48:53.293Z,2.37
2018-07-25T13:51:21.830Z,2.75
2018-07-25T13:53:50.566Z,3.00
2018-07-25T13:56:19.385Z,2.70
2018-07-25T13:58:48.099Z,2.55
2018-07-25T14:01:17.282Z,2.70
2018-07-25T14:03:46.090Z,2.35
2018-07-25T14:06:14.653Z,2.50
2018-07-25T14:08:43.709Z,2.55
2018-07-25T14:11:12.649Z,2.55
2018-07-25T14:13:41.106Z,2.58
2018-07-25T14:16:10.061Z,2.62
2018-07-25T14:18:38.821Z,2.85
2018-07-25T14:21:07.342Z,2.52
2018-07-25T14:23:36.804Z,2.92
2018-07-25T14:26:05.282Z,2.77
2018-07-25T14:28:33.959Z,2.72
2018-07-25T14:31:03.006Z,2.80
2018-07-25T14:33:31.485Z,2.58
2018-07-25T14:35:59.965Z,2.62
2018-07-25T14:38:28.629Z,2.70
2018-07-25T14:40:58.373Z,2.72
2018-07-25T14:43:27.022Z,2.17
2018-07-25T14:45:55.521Z,2.80
2018-07-25T14:48:24.495Z,2.92
2018-07-25T14:50:52.959Z,2.60
2018-07-25T14:53:21.771Z,2.92
2018-07-25T14:55:50.626Z,2.92
2018-07-25T14:58:19.582Z,2.70
2018-07-25T15:00:48.546Z,2.90
2018-07-25T15:03:17.066Z,2.55
2018-07-25T15:05:45.606Z,2.77
2018-07-25T15:08:14.452Z,3.35
2018-07-25T15:10:42.944Z,3.00
2018-07-25T15:13:12.066Z,2.50
2018-07-25T15:15:41.085Z,2.67
2018-07-25T15:18:09.585Z,2.75
2018-07-25T15:20:38.090Z,2.77
2018-07-25T15:23:06.915Z,2.50
2018-07-25T15:25:35.485Z,3.02
2018-07-25T15:28:04.006Z,2.62
2018-07-25T15:30:32.977Z,2.90
2018-07-25T15:33:01.487Z,2.70
2018-07-25T15:35:29.953Z,2.65
2018-07-25T15:37:58.501Z,3.12
2018-07-25T15:40:26.961Z,2.98
2018-07-25T15:42:55.437Z,2.75
2018-07-25T15:45:24.314Z,2.83
2018-07-25T15:47:52.765Z,2.83
2018-07-25T15:50:21.653Z,2.90
2018-07-25T15:52:50.316Z,3.27
2018-07-25T15:55:18.981Z,2.92
2018-07-25T15:57:47.549Z,3.37
2018-07-25T16:00:16.078Z,3.12
2018-07-25T16:02:51.765Z,2.90
2018-07-25T16:05:20.713Z,2.80
2018-07-25T16:07:49.189Z,3.30
2018-07-25T16:10:18.080Z,2.80
2018-07-25T16:12:46.889Z,2.80
2018-07-25T16:15:15.369Z,2.98
2018-07-25T16:17:44.265Z,2.70
2018-07-25T16:20:12.796Z,2.72
2018-07-25T16:22:41.661Z,3.00
2018-07-25T16:25:10.193Z,3.45
2018-07-25T16:27:38.749Z,3.80
2018-07-25T16:30:07.449Z,3.62
2018-07-25T16:32:35.979Z,3.65
2018-07-25T16:35:05.361Z,3.90
2018-07-25T16:37:34.082Z,3.27
2018-07-25T16:40:03.041Z,3.10
2018-07-25T16:42:32.311Z,3.37
2018-07-25T16:45:00.811Z,3.30
2018-07-25T16:47:29.386Z,3.30
2018-07-25T16:49:59.313Z,5.53
2018-07-25T16:52:27.781Z,3.40
2018-07-25T16:54:57.309Z,3.55
2018-07-25T16:57:26.323Z,2.90
2018-07-25T16:59:54.783Z,3.45
2018-07-25T17:02:23.359Z,3.60
2018-07-25T17:04:52.146Z,3.65
2018-07-25T17:07:20.684Z,4.12
2018-07-25T17:09:49.151Z,4.62
2018-07-25T17:12:17.672Z,4.78
2018-07-25T17:14:46.233Z,5.55
2018-07-25T17:17:14.717Z,4.50
2018-07-25T17:19:43.225Z,2.70
2018-07-25T17:22:11.684Z,3.00
2018-07-25T17:24:40.122Z,2.87
2018-07-25T17:27:09.193Z,2.67
2018-07-25T17:29:37.722Z,3.83
2018-07-25T17:32:06.681Z,3.33
2018-07-25T17:34:35.153Z,2.85
2018-07-25T17:37:03.685Z,3.33
2018-07-25T17:39:32.161Z,3.30
2018-07-25T17:42:01.078Z,3.08
2018-07-25T17:44:29.821Z,3.15
2018-07-25T17:46:58.463Z,2.75
2018-07-25T17:49:27.661Z,3.02
2018-07-25T17:51:56.330Z,3.33
2018-07-25T17:54:24.953Z,2.70
2018-07-25T17:56:54.378Z,2.90
2018-07-25T17:59:22.821Z,2.70
2018-07-25T18:01:51.293Z,3.52
2018-07-25T18:04:19.989Z,3.40
2018-07-25T18:06:48.613Z,4.40
2018-07-25T18:09:17.114Z,2.70
2018-07-25T18:11:46.220Z,2.95
2018-07-25T18:14:15.784Z,3.25
2018-07-25T18:16:45.278Z,2.80
2018-07-25T18:19:15.205Z,3.08
2018-07-25T18:21:44.079Z,3.12
2018-07-25T18:24:13.011Z,3.33
2018-07-25T18:26:41.664Z,3.08
2018-07-25T18:29:10.779Z,3.17
2018-07-25T18:31:39.535Z,2.85
2018-07-25T18:34:08.386Z,2.70
2018-07-25T18:36:37.091Z,3.72
2018-07-25T18:39:08.286Z,3.30
2018-07-25T18:41:36.862Z,3.10
2018-07-25T18:44:05.350Z,3.00
2018-07-25T18:46:34.406Z,2.85
2018-07-25T18:49:02.930Z,3.37
2018-07-25T18:51:31.428Z,3.42
2018-07-25T18:54:00.981Z,2.98
2018-07-25T18:56:30.278Z,3.12
2018-07-25T18:58:59.183Z,3.02
2018-07-25T19:01:27.990Z,3.10
2018-07-25T19:03:57.109Z,3.33
2018-07-25T19:06:26.307Z,3.20
2018-07-25T19:08:54.937Z,3.30
2018-07-25T19:11:24.100Z,3.50
2018-07-25T19:14:01.997Z,2.87
2018-07-25T19:16:30.584Z,2.90
2018-07-25T19:18:59.193Z,3.35
2018-07-25T19:21:28.531Z,3.15
2018-07-25T19:23:57.001Z,3.77
2018-07-25T19:26:26.227Z,3.02
2018-07-25T19:28:55.178Z,3.15
2018-07-25T19:31:24.312Z,3.10
2018-07-25T19:33:53.017Z,3.40
2018-07-25T19:36:21.878Z,2.98
2018-07-25T19:38:50.474Z,3.08
2018-07-25T19:41:19.164Z,3.10
2018-07-25T19:43:48.021Z,3.20
2018-07-25T19:46:17.135Z,2.62
2018-07-25T19:48:45.593Z,3.25
2018-07-25T19:51:14.079Z,2.85
2018-07-25T19:53:43.100Z,3.10
2018-07-25T19:56:11.932Z,3.02
2018-07-25T19:58:40.512Z,3.30
2018-07-25T20:01:09.759Z,3.52
2018-07-25T20:03:39.898Z,3.35
2018-07-25T20:06:08.397Z,3.50
2018-07-25T20:08:37.174Z,3.02
2018-07-25T20:11:06.250Z,3.47
2018-07-25T20:13:34.822Z,3.33
2018-07-25T20:16:03.717Z,2.95
2018-07-25T20:18:32.197Z,3.30
2018-07-25T20:21:01.583Z,3.50
2018-07-25T20:23:30.173Z,3.50
2018-07-25T20:26:02.062Z,3.30
2018-07-25T20:28:34.153Z,3.50
2018-07-25T20:31:03.230Z,3.80
2018-07-25T20:33:33.897Z,3.25
2018-07-25T20:36:02.991Z,3.40
2018-07-25T20:38:31.970Z,3.45
2018-07-25T20:41:00.454Z,3.45
2018-07-25T20:43:29.237Z,3.22
2018-07-25T20:45:58.125Z,3.47
2018-07-25T20:48:26.606Z,3.92
2018-07-25T20:50:55.367Z,3.35
2018-07-25T20:53:24.165Z,3.72
2018-07-25T20:55:52.604Z,3.60
2018-07-25T20:58:21.083Z,3.75
2018-07-25T21:00:50.105Z,3.70
2018-07-25T21:03:18.568Z,3.45
2018-07-25T21:05:47.134Z,3.62
2018-07-25T21:08:16.601Z,3.62
2018-07-25T21:10:45.463Z,3.45
2018-07-25T21:13:14.089Z,3.75
2018-07-25T21:15:42.738Z,3.70
2018-07-25T21:18:11.542Z,3.80
2018-07-25T21:20:39.976Z,3.47
2018-07-25T21:23:08.806Z,3.87
2018-07-25T21:25:37.483Z,3.85
2018-07-25T21:28:06.273Z,3.75
2018-07-25T21:30:35.058Z,3.55
2018-07-25T21:33:03.502Z,3.95
2018-07-25T21:35:32.222Z,3.77
2018-07-25T21:38:01.022Z,3.98
2018-07-25T21:40:29.610Z,4.20
2018-07-25T21:42:58.115Z,4.33
2018-07-25T21:45:27.264Z,3.67
2018-07-25T21:47:56.001Z,4.03
2018-07-25T21:50:24.513Z,3.40
2018-07-25T21:52:53.625Z,3.85
2018-07-25T21:55:22.725Z,3.77
2018-07-25T21:57:51.193Z,3.75
2018-07-25T22:00:20.361Z,3.75
2018-07-25T22:02:48.994Z,3.65
2018-07-25T22:05:17.468Z,4.28
2018-07-25T22:07:46.574Z,3.95
2018-07-25T22:10:15.401Z,3.92
2018-07-25T22:12:43.834Z,4.05
2018-07-25T22:15:13.102Z,3.90
2018-07-25T22:17:41.740Z,4.12
2018-07-25T22:20:12.254Z,3.90
2018-07-25T22:22:41.205Z,4.17
2018-07-25T22:25:10.710Z,4.00
2018-07-25T22:27:40.325Z,3.98
2018-07-25T22:30:09.182Z,4.12
2018-07-25T22:32:37.837Z,4.15
2018-07-25T22:35:06.700Z,4.30
2018-07-25T22:37:35.682Z,4.05
2018-07-25T22:40:04.631Z,4.75
2018-07-25T22:42:33.105Z,4.72
2018-07-25T22:45:02.345Z,4.53
2018-07-25T22:47:30.773Z,4.80
2018-07-25T22:49:59.265Z,4.87
2018-07-25T22:52:28.645Z,4.30
2018-07-25T22:54:57.502Z,4.60
2018-07-25T22:57:25.957Z,5.20
2018-07-25T22:59:54.779Z,4.75
2018-07-25T23:02:23.855Z,4.62
2018-07-25T23:04:52.365Z,5.08
2018-07-25T23:07:21.132Z,5.45
2018-07-25T23:09:49.941Z,5.33
2018-07-25T23:12:18.489Z,5.25
2018-07-25T23:14:47.513Z,5.80
2018-07-25T23:17:16.640Z,5.45
2018-07-25T23:19:45.139Z,5.22
2018-07-25T23:22:13.976Z,5.50
2018-07-25T23:24:42.691Z,6.00
2018-07-25T23:27:11.703Z,5.83
2018-07-25T23:29:40.152Z,5.97
2018-07-25T23:32:09.626Z,5.62
2018-07-25T23:34:38.433Z,6.12
2018-07-25T23:37:05.971Z,6.47
2018-07-25T23:39:34.409Z,6.60
2018-07-25T23:42:03.601Z,6.10
2018-07-25T23:44:32.636Z,6.25
2018-07-25T23:47:01.079Z,6.50
2018-07-25T23:49:29.725Z,6.67
2018-07-25T23:51:58.998Z,6.62
2018-07-25T23:54:27.713Z,6.37
2018-07-25T23:56:56.667Z,6.47
2018-07-25T23:59:25.484Z,7.53
